Time;durP1;ratioP1;P1;durP2;ratioP2;P2;SDS_P1;SDS_P2;PMS_P1;PMS_P2;Temp;Humidity;BMP_temperature;BMP_pressure;BME280_temperature;BME280_humidity;BME280_pressure;Samples;Min_cycle;Max_cycle;Signal;HPM_P1;HPM_P2
2022/03/28 12:36:26;;;;;;;16.90;5.20;;;;;;;9.46;64.27;99357.05;1699979;78;21080;-59
2022/03/28 12:39:00;;;;;;;28.30;6.75;;;;;;;9.51;63.83;99337.66;1709299;82;20999;-60
2022/03/28 12:41:27;;;;;;;15.03;5.35;;;;;;;9.62;63.96;99348.41;1709021;83;21107;-59
2022/03/28 12:43:54;;;;;;;29.95;5.78;;;;;;;9.70;63.69;99347.20;1707915;83;21056;-61
2022/03/28 12:46:25;;;;;;;24.82;5.83;;;;;;;9.73;63.74;99319.67;1710796;82;21075;-61
2022/03/28 12:48:57;;;;;;;12.55;5.35;;;;;;;9.69;63.53;99321.59;1712307;81;21553;-61
2022/03/28 12:51:31;;;;;;;35.33;6.42;;;;;;;9.64;63.76;99334.84;1711213;83;21005;-61
2022/03/28 12:54:11;;;;;;;10.50;5.10;;;;;;;9.76;63.99;99329.94;1706193;83;21072;-61
2022/03/28 12:56:51;;;;;;;73.52;9.80;;;;;;;9.81;63.64;99326.65;1708727;82;21119;-60
2022/03/28 13:01:00;;;;;;;24.15;4.95;;;;;;;9.68;63.46;99317.75;1881244;74;22598;-61
2022/03/28 13:03:29;;;;;;;31.65;6.15;;;;;;;9.53;63.35;99316.28;1830550;76;20954;-66
2022/03/28 13:06:10;;;;;;;8.53;5.22;;;;;;;9.37;63.27;99306.23;1829321;76;21296;-64
2022/03/28 13:08:39;;;;;;;32.85;7.03;;;;;;;9.21;63.06;99294.86;1830326;76;21679;-61
2022/03/28 13:11:19;;;;;;;14.85;5.17;;;;;;;8.95;63.10;99291.75;1839791;76;20930;-62
2022/03/28 13:13:50;;;;;;;49.88;7.58;;;;;;;8.65;63.49;99284.91;1856150;76;21535;-61
2022/03/28 13:16:22;;;;;;;23.98;5.70;;;;;;;8.65;63.49;99284.91;1840238;76;20977;-60
2022/03/28 13:18:59;;;;;;;50.65;8.05;;;;;;;8.54;63.66;99261.98;1847276;76;21817;-61
2022/03/28 13:21:31;;;;;;;26.35;6.22;;;;;;;8.54;63.66;99261.98;1841822;76;20915;-61
2022/03/28 13:24:15;;;;;;;16.82;6.40;;;;;;;8.72;63.70;99272.85;1822173;76;22292;-62
2022/03/28 13:26:47;;;;;;;18.40;5.60;;;;;;;8.82;63.55;99273.70;1832983;76;20987;-63
2022/03/28 13:29:23;;;;;;;16.70;5.60;;;;;;;8.72;63.29;99257.23;1827748;75;21108;-62
2022/03/28 13:31:53;;;;;;;12.98;6.65;;;;;;;8.55;63.35;99262.39;1830075;76;21185;-62
2022/03/28 13:34:22;;;;;;;12.13;5.03;;;;;;;8.41;63.38;99243.97;1838029;76;21064;-62
2022/03/28 13:36:51;;;;;;;18.30;5.78;;;;;;;8.25;63.37;99252.42;1832003;76;21006;-62
2022/03/28 13:39:19;;;;;;;14.18;5.67;;;;;;;8.09;63.58;99250.12;1826579;76;21049;-62
2022/03/28 13:41:46;;;;;;;15.08;5.97;;;;;;;8.03;63.54;99239.53;1832490;76;21268;-62
2022/03/28 13:44:13;;;;;;;27.20;5.92;;;;;;;8.00;63.68;99238.37;1833897;76;21957;-62
2022/03/28 13:46:40;;;;;;;18.95;5.37;;;;;;;8.09;63.93;99228.02;1821844;76;20964;-64
2022/03/28 13:49:07;;;;;;;45.97;7.43;;;;;;;8.22;64.09;99216.16;1825844;76;20977;-62
2022/03/28 13:51:37;;;;;;;40.88;6.87;;;;;;;8.39;64.07;99214.57;1820291;76;20974;-62
2022/03/28 13:54:07;;;;;;;37.15;6.20;;;;;;;8.42;63.87;99206.63;1832334;76;20974;-63
2022/03/28 13:56:36;;;;;;;28.17;7.08;;;;;;;8.37;63.89;99218.96;1834297;76;21295;-62
2022/03/28 13:59:06;;;;;;;53.30;8.35;;;;;;;8.40;64.01;99216.25;1841363;76;20877;-62
2022/03/28 14:01:33;;;;;;;13.32;6.80;;;;;;;8.41;63.90;99220.55;1829791;76;21038;-62
2022/03/28 14:04:06;;;;;;;10.45;5.58;;;;;;;8.40;64.06;99229.25;1831738;76;20993;-63
2022/03/28 14:06:30;;;;;;;12.37;5.42;;;;;;;8.30;63.87;99220.55;1830007;76;20986;-62
2022/03/28 14:11:44;;;;;;;15.18;6.28;;;;;;;8.14;64.23;99213.05;1791102;78;21032;-61
2022/03/28 14:14:12;;;;;;;23.98;7.53;;;;;;;8.13;64.15;99213.98;1795245;78;21010;-61
2022/03/28 14:16:39;;;;;;;38.70;6.83;;;;;;;8.06;64.14;99216.45;1787932;78;21021;-61
2022/03/28 14:19:07;;;;;;;16.65;5.62;;;;;;;8.07;64.26;99215.56;1788738;78;20942;-61
2022/03/28 14:21:43;;;;;;;47.85;8.70;;;;;;;8.03;64.26;99217.44;1794686;78;21669;-61
2022/03/28 14:24:12;;;;;;;16.77;5.95;;;;;;;8.00;64.36;99208.47;1792586;78;21603;-61
2022/03/28 14:27:29;;;;;;;12.70;5.95;;;;;;;8.00;64.30;99203.73;1834622;76;22726;-61
2022/03/28 14:29:57;;;;;;;22.55;7.12;;;;;;;7.81;64.25;99209.77;1821282;78;21087;-61
2022/03/28 14:32:26;;;;;;;11.22;7.90;;;;;;;7.67;64.24;99205.61;1819065;78;21101;-61
2022/03/28 14:34:59;;;;;;;12.47;6.97;;;;;;;7.47;64.30;99213.42;1820253;78;20987;-61
2022/03/28 14:37:24;;;;;;;7.87;5.95;;;;;;;7.36;64.62;99217.31;1813413;78;20993;-61
2022/03/28 14:39:55;;;;;;;16.55;7.37;;;;;;;7.33;64.73;99207.05;1811904;78;21335;-61
2022/03/28 14:42:21;;;;;;;24.63;7.37;;;;;;;7.28;64.72;99209.03;1814775;78;21321;-61
2022/03/28 14:44:48;;;;;;;14.07;8.08;;;;;;;7.18;64.75;99190.84;1769766;78;22110;-62
2022/03/28 14:47:15;;;;;;;13.30;6.92;;;;;;;7.06;64.90;99200.44;1772560;79;21056;-61
2022/03/28 14:49:42;;;;;;;34.10;8.63;;;;;;;6.99;65.00;99206.78;1769904;79;21001;-61
2022/03/28 14:52:09;;;;;;;103.02;13.25;;;;;;;6.89;65.04;99199.38;1770119;80;21083;-61
2022/03/28 14:54:37;;;;;;;18.80;7.35;;;;;;;6.81;65.28;99189.75;1768740;79;21055;-62
2022/03/28 14:57:06;;;;;;;17.77;7.00;;;;;;;6.72;65.27;99194.86;1768692;80;24336;-61
2022/03/28 14:59:36;;;;;;;18.80;6.95;;;;;;;6.67;65.49;99166.12;1766651;79;20995;-61
2022/03/28 15:02:04;;;;;;;24.65;8.20;;;;;;;6.52;65.64;99193.95;1770866;79;20938;-61
2022/03/28 15:04:30;;;;;;;;;;;;;;;6.34;65.58;99193.76;1772434;79;21068;-61
2022/03/28 15:06:58;;;;;;;36.20;9.15;;;;;;;6.28;65.84;99182.33;1771649;79;20127;-61
2022/03/28 15:09:27;;;;;;;32.55;9.68;;;;;;;6.16;65.94;99186.67;1771941;79;22777;-61
2022/03/28 15:11:56;;;;;;;13.93;7.85;;;;;;;6.07;66.01;99192.20;1753955;79;21493;-63
2022/03/28 15:14:24;;;;;;;18.07;7.45;;;;;;;6.02;66.29;99205.33;1769913;79;21027;-61
2022/03/28 15:16:54;;;;;;;37.25;9.13;;;;;;;6.05;66.46;99198.77;1735049;81;20966;-61
2022/03/28 15:19:24;;;;;;;28.62;9.20;;;;;;;6.02;66.39;99182.88;1697651;82;21715;-61
2022/03/28 15:21:51;;;;;;;20.65;8.48;;;;;;;5.95;66.59;99185.28;1737410;81;21770;-65
2022/03/28 15:24:19;;;;;;;49.40;10.60;;;;;;;5.95;66.65;99181.39;1738209;81;20988;-62
2022/03/28 15:26:55;;;;;;;22.70;9.90;;;;;;;5.93;66.87;99172.83;1717901;81;20991;-62
2022/03/28 15:29:23;;;;;;;59.63;12.43;;;;;;;5.91;67.00;99166.84;1705179;83;21278;-62
2022/03/28 15:31:51;;;;;;;;;;;;;;;5.89;67.21;99124.59;1707122;83;21173;-62
2022/03/28 15:34:24;;;;;;;26.97;8.83;;;;;;;5.87;67.18;99146.27;1737599;81;21074;-62
2022/03/28 15:36:53;;;;;;;20.68;8.00;;;;;;;5.85;67.34;99150.20;1731938;81;21142;-62
2022/03/28 15:39:22;;;;;;;15.10;8.53;;;;;;;5.90;67.44;99154.77;1733439;81;21921;-62
2022/03/28 15:41:50;;;;;;;37.67;9.50;;;;;;;5.89;67.55;99171.23;1735551;81;20981;-62
2022/03/28 15:44:18;;;;;;;15.30;8.85;;;;;;;5.91;67.70;99167.27;1735896;81;21032;-62
2022/03/28 15:46:46;;;;;;;17.67;9.30;;;;;;;5.92;67.69;99155.56;1732579;81;21115;-63
2022/03/28 15:49:16;;;;;;;15.55;8.25;;;;;;;5.91;67.70;99151.30;1736185;80;21163;-62
2022/03/28 15:51:45;;;;;;;27.60;9.03;;;;;;;5.87;67.65;99147.11;1735392;80;21854;-62
2022/03/28 15:54:14;;;;;;;13.35;8.68;;;;;;;5.81;67.72;99148.64;1738431;81;22269;-62
2022/03/28 15:56:42;;;;;;;30.97;10.20;;;;;;;5.77;67.98;99154.40;1737467;81;21018;-62
2022/03/28 15:59:11;;;;;;;16.07;8.88;;;;;;;5.75;67.94;99160.53;1734539;81;21083;-62
2022/03/28 16:01:48;;;;;;;16.95;8.20;;;;;;;5.71;68.13;99169.30;1737785;81;21100;-62
2022/03/28 16:04:18;;;;;;;11.70;9.05;;;;;;;5.70;68.21;99155.96;1733904;81;21546;-62
2022/03/28 16:06:51;;;;;;;40.33;9.73;;;;;;;5.64;68.10;99158.78;1737512;81;21564;-62
2022/03/28 16:09:21;;;;;;;23.90;10.60;;;;;;;5.61;68.53;99163.62;1734406;81;21208;-62
2022/03/28 16:11:57;;;;;;;33.30;10.08;;;;;;;5.50;68.42;99162.70;1730885;81;21070;-62
2022/03/28 16:14:39;;;;;;;24.47;9.20;;;;;;;5.44;68.51;99160.34;1734026;81;21060;-62
2022/03/28 16:19:23;;;;;;;26.55;9.00;;;;;;;5.38;68.83;99167.03;1862656;76;24490;-61
2022/03/28 16:21:52;;;;;;;31.57;9.83;;;;;;;5.28;68.87;99159.17;1820146;78;21046;-62
2022/03/28 16:24:19;;;;;;;15.25;9.50;;;;;;;5.26;69.01;99154.49;1817657;77;21062;-62
2022/03/28 16:26:47;;;;;;;22.52;10.40;;;;;;;5.24;69.07;99144.21;1812124;78;20998;-61
2022/03/28 16:29:14;;;;;;;;;;;;;;;5.26;69.16;99138.96;1820541;77;20955;-61
2022/03/28 16:31:41;;;;;;;22.13;10.25;;;;;;;5.24;69.23;99137.73;1821888;78;20783;-61
2022/03/28 16:35:03;;;;;;;56.08;11.88;;;;;;;5.26;69.44;99140.25;1845145;76;21870;-61
2022/03/28 16:37:30;;;;;;;17.05;9.93;;;;;;;5.18;69.44;99133.20;1761130;78;21078;-61
2022/03/28 16:39:57;;;;;;;21.30;10.28;;;;;;;5.14;69.69;99124.25;1815926;78;21393;-61
2022/03/28 16:42:29;;;;;;;17.90;8.83;;;;;;;5.09;69.69;99122.27;1811886;78;21011;-61
2022/03/28 16:44:59;;;;;;;18.35;9.40;;;;;;;5.10;69.83;99120.55;1814404;78;21003;-61
2022/03/28 16:47:30;;;;;;;13.03;9.73;;;;;;;5.10;69.96;99129.16;1806324;78;22228;-61
2022/03/28 16:50:02;;;;;;;18.32;9.95;;;;;;;5.07;69.93;99123.22;1809233;78;21014;-60
2022/03/28 16:52:32;;;;;;;14.93;9.43;;;;;;;5.05;70.00;99110.34;1807739;78;21086;-60
2022/03/28 16:55:02;;;;;;;19.12;9.30;;;;;;;5.05;70.07;99121.16;1776170;78;21039;-62
2022/03/28 16:57:29;;;;;;;16.32;9.80;;;;;;;5.04;70.33;99122.03;1807229;78;22441;-62
2022/03/28 16:59:58;;;;;;;14.45;9.00;;;;;;;5.02;70.20;99119.52;1816831;77;20999;-62
2022/03/28 17:02:26;;;;;;;16.12;9.48;;;;;;;5.02;70.36;99106.58;1817781;78;21091;-62
2022/03/28 17:04:54;;;;;;;14.98;9.68;;;;;;;5.01;70.43;99097.11;1786013;77;21286;-62
2022/03/28 17:07:21;;;;;;;17.02;9.30;;;;;;;5.00;70.52;99114.83;1814940;78;21044;-62
2022/03/28 17:09:49;;;;;;;13.22;8.85;;;;;;;4.97;70.53;99117.53;1811851;78;20990;-62
2022/03/28 17:12:18;;;;;;;24.72;10.10;;;;;;;4.97;70.66;99111.06;1807926;78;21089;-62
2022/03/28 17:14:45;;;;;;;34.15;10.88;;;;;;;4.94;70.75;99105.99;1806955;78;20985;-63
2022/03/28 17:17:13;;;;;;;17.70;9.73;;;;;;;4.95;70.91;99096.03;1804424;78;22332;-62
2022/03/28 17:19:41;;;;;;;15.63;10.38;;;;;;;4.95;70.93;99089.56;1814077;78;20935;-65
2022/03/28 17:22:10;;;;;;;;;;;;;;;4.92;71.26;99102.61;1813594;78;20996;-61
2022/03/28 17:24:37;;;;;;;11.83;9.58;;;;;;;4.91;71.11;99097.05;1816036;78;20148;-63
2022/03/28 17:27:05;;;;;;;21.07;11.10;;;;;;;4.90;71.18;99095.34;1817022;78;21010;-61
2022/03/28 17:29:33;;;;;;;;;;;;;;;4.92;71.26;99100.02;1819927;78;21887;-60
2022/03/28 17:32:07;;;;;;;21.65;10.23;;;;;;;4.92;71.33;99102.61;1813174;78;20171;-61
2022/03/28 17:34:35;;;;;;;15.10;10.93;;;;;;;4.91;71.34;99108.23;1782676;78;21564;-63
2022/03/28 17:37:03;;;;;;;14.30;10.13;;;;;;;4.92;71.56;99108.62;1817793;78;20979;-60
2022/03/28 17:39:32;;;;;;;12.98;9.53;;;;;;;4.94;71.66;99097.77;1777660;78;21016;-60
2022/03/28 17:42:01;;;;;;;15.68;10.40;;;;;;;4.93;71.68;99089.62;1806933;78;21022;-62
2022/03/28 17:44:30;;;;;;;17.80;9.98;;;;;;;4.92;71.77;99080.16;1808242;78;20944;-62
2022/03/28 17:47:22;;;;;;;22.50;10.68;;;;;;;4.93;71.87;99075.41;1812599;77;21621;-62
2022/03/28 17:49:50;;;;;;;14.10;8.90;;;;;;;4.95;71.96;99077.92;1651391;85;21671;-62
2022/03/28 17:52:19;;;;;;;17.50;10.08;;;;;;;4.97;72.23;99080.47;1681215;84;21134;-61
2022/03/28 17:54:48;;;;;;;19.40;9.65;;;;;;;4.97;72.17;99069.66;1672275;84;21147;-63
2022/03/28 17:57:16;;;;;;;20.62;10.38;;;;;;;4.98;72.26;99067.46;1653276;84;21081;-62
2022/03/28 17:59:43;;;;;;;20.35;10.55;;;;;;;4.98;72.37;99082.98;1677146;84;21043;-61
2022/03/28 18:02:10;;;;;;;;;;;;;;;4.98;72.40;99077.81;1685661;84;20988;-61
2022/03/28 18:04:37;;;;;;;17.57;10.90;;;;;;;4.99;72.61;99079.52;1678675;84;20176;-65
2022/03/28 18:07:05;;;;;;;15.23;9.43;;;;;;;5.00;72.63;99074.73;1680346;84;21429;-61
2022/03/28 18:09:33;;;;;;;25.05;11.15;;;;;;;4.99;72.71;99069.17;1681815;84;21092;-63
2022/03/28 18:14:51;;;;;;;16.20;9.95;;;;;;;5.03;72.88;99070.73;1731661;81;21006;-61
2022/03/28 18:17:20;;;;;;;18.37;10.30;;;;;;;5.06;73.19;99069.33;1735960;81;21005;-62
2022/03/28 18:19:46;;;;;;;16.52;10.05;;;;;;;5.09;73.09;99082.16;1733538;81;22116;-62
2022/03/28 18:22:13;;;;;;;20.93;10.00;;;;;;;5.11;73.29;99093.31;1726305;81;21030;-62
2022/03/28 18:24:41;;;;;;;17.67;9.65;;;;;;;5.14;73.66;99098.38;1738888;81;21086;-62
2022/03/28 18:27:08;;;;;;;15.40;10.38;;;;;;;5.14;73.58;99095.78;1731708;81;21038;-62
2022/03/28 18:29:35;;;;;;;13.08;10.23;;;;;;;5.18;73.48;99086.63;1729165;81;21066;-61
2022/03/28 18:32:03;;;;;;;16.35;10.13;;;;;;;5.20;73.66;99087.42;1731323;81;21877;-62
2022/03/28 18:34:31;;;;;;;20.95;10.98;;;;;;;5.22;73.64;99075.27;1734704;81;21058;-61
2022/03/28 18:36:57;;;;;;;17.48;11.43;;;;;;;5.22;73.71;99083.88;1727763;81;21613;-62
2022/03/28 18:39:24;;;;;;;16.70;10.78;;;;;;;5.23;73.79;99075.20;1732061;81;21044;-62
2022/03/28 18:41:51;;;;;;;22.00;10.90;;;;;;;5.25;73.90;99078.59;1728981;81;21088;-62
2022/03/28 18:44:20;;;;;;;14.73;10.40;;;;;;;5.26;73.89;99061.31;1732056;81;22111;-62
2022/03/28 18:46:48;;;;;;;15.60;9.90;;;;;;;5.28;74.03;99059.52;1732503;81;21066;-64
2022/03/28 18:49:15;;;;;;;12.75;9.73;;;;;;;5.29;74.04;99052.14;1734808;81;21071;-62
2022/03/28 18:51:43;;;;;;;14.95;11.05;;;;;;;5.29;74.15;99067.67;1735642;81;21066;-62
2022/03/28 18:54:10;;;;;;;14.87;10.60;;;;;;;5.31;74.23;99041.28;1731858;81;21192;-63
2022/03/28 18:56:37;;;;;;;16.97;10.93;;;;;;;5.29;74.39;99053.01;1735056;81;21076;-62
2022/03/28 18:59:04;;;;;;;14.80;9.67;;;;;;;5.30;74.58;99079.73;1731603;81;20984;-62
2022/03/28 19:01:31;;;;;;;;;;;;;;;5.30;74.66;99069.38;1731668;81;21485;-62
2022/03/28 19:03:58;;;;;;;12.33;9.60;;;;;;;5.31;74.89;99072.34;1717028;83;20196;-62
2022/03/28 19:06:24;;;;;;;13.60;9.63;;;;;;;5.31;75.06;99069.76;1731717;81;21086;-62
2022/03/28 19:08:51;;;;;;;13.70;9.50;;;;;;;5.31;74.99;99072.34;1732310;81;21530;-63
2022/03/28 19:11:18;;;;;;;20.08;10.18;;;;;;;5.32;75.36;99067.12;1733549;81;21536;-62
2022/03/28 19:13:45;;;;;;;11.93;10.08;;;;;;;5.33;75.02;99060.20;1712629;81;25039;-62
2022/03/28 19:16:15;;;;;;;27.65;9.63;;;;;;;5.33;75.20;99047.26;1700033;83;21548;-61
2022/03/28 19:18:42;;;;;;;15.93;9.60;;;;;;;5.35;75.69;99057.12;1701580;82;20983;-61
2022/03/28 19:21:10;;;;;;;14.13;10.10;;;;;;;5.33;75.57;99061.04;1700936;83;21198;-61
2022/03/28 19:23:37;;;;;;;16.15;10.82;;;;;;;5.32;75.62;99055.91;1700579;83;21015;-62
2022/03/28 19:26:04;;;;;;;13.32;9.88;;;;;;;5.32;75.57;99052.02;1699114;83;20989;-62
2022/03/28 19:28:30;;;;;;;15.98;10.25;;;;;;;5.33;75.74;99039.49;1701638;84;20991;-62
2022/03/28 19:30:59;;;;;;;21.33;11.28;;;;;;;5.31;75.79;99036.11;1701469;84;22118;-64
2022/03/28 19:33:25;;;;;;;18.30;10.78;;;;;;;5.31;75.88;99049.05;1697508;84;22339;-63
2022/03/28 19:35:54;;;;;;;16.30;10.13;;;;;;;5.30;76.15;99040.45;1701407;83;21548;-63
2022/03/28 19:38:21;;;;;;;23.00;10.72;;;;;;;5.31;76.12;99023.17;1701638;83;20901;-61
2022/03/28 19:40:50;;;;;;;15.60;10.97;;;;;;;5.30;76.22;99035.27;1701944;83;21487;-60
2022/03/28 19:43:16;;;;;;;15.50;10.98;;;;;;;5.28;76.35;99040.95;1703719;82;21544;-60
2022/03/28 19:45:43;;;;;;;17.98;11.30;;;;;;;5.30;76.24;99037.02;1702551;82;21887;-61
2022/03/28 19:48:10;;;;;;;18.12;10.38;;;;;;;5.29;76.31;99039.20;1702549;82;20948;-60
2022/03/28 19:50:39;;;;;;;16.97;11.15;;;;;;;5.28;76.69;99025.87;1699614;84;21071;-60
2022/03/28 19:53:07;;;;;;;18.60;11.10;;;;;;;5.25;76.59;99023.39;1700876;83;20952;-60
2022/03/28 19:55:37;;;;;;;14.38;10.20;;;;;;;5.25;76.72;99024.23;1701979;82;21098;-61
2022/03/28 19:58:03;;;;;;;14.25;10.63;;;;;;;5.26;77.37;99009.55;1701865;82;21138;-61
2022/03/28 20:00:31;;;;;;;16.40;11.50;;;;;;;5.24;77.23;99008.32;1701278;84;21042;-61
2022/03/28 20:02:58;;;;;;;18.20;11.75;;;;;;;5.22;76.92;99003.64;1701994;82;20975;-60
2022/03/28 20:05:25;;;;;;;22.27;11.43;;;;;;;5.24;76.90;99001.02;1701728;83;21046;-60
2022/03/28 20:07:54;;;;;;;16.52;10.72;;;;;;;5.25;76.86;98997.52;1700785;83;21058;-60
2022/03/28 20:10:23;;;;;;;16.70;10.90;;;;;;;5.26;76.83;98991.42;1699105;83;22474;-60
2022/03/28 20:12:50;;;;;;;16.35;11.78;;;;;;;5.25;76.93;99002.69;1699771;83;20988;-61
2022/03/28 20:15:17;;;;;;;13.93;10.88;;;;;;;5.23;77.06;99000.60;1710406;82;21626;-60
2022/03/28 20:17:45;;;;;;;16.45;11.50;;;;;;;5.22;77.18;98996.34;1709790;82;21661;-61
2022/03/28 20:20:12;;;;;;;16.82;11.80;;;;;;;5.20;77.16;98983.44;1710296;82;21022;-60
2022/03/28 20:22:38;;;;;;;20.88;12.23;;;;;;;5.19;77.08;98964.10;1693938;83;21453;-61
2022/03/28 20:25:07;;;;;;;16.10;11.10;;;;;;;5.15;77.13;98966.81;1709874;83;21546;-60
2022/03/28 20:27:34;;;;;;;15.13;11.78;;;;;;;5.12;77.14;98970.78;1711558;83;21073;-61
2022/03/28 20:30:03;;;;;;;21.97;12.53;;;;;;;5.10;77.15;98975.19;1710186;82;21451;-61
2022/03/28 20:32:29;;;;;;;18.02;12.33;;;;;;;5.07;77.29;98980.48;1711487;82;20979;-61
2022/03/28 20:34:56;;;;;;;19.07;11.70;;;;;;;5.03;77.35;98967.23;1711804;83;21103;-61
2022/03/28 20:37:23;;;;;;;18.17;12.10;;;;;;;5.01;77.32;98968.20;1712045;82;21571;-61
2022/03/28 20:39:50;;;;;;;17.57;11.50;;;;;;;4.98;77.39;98974.32;1711667;82;21448;-62
2022/03/28 20:42:17;;;;;;;18.35;11.08;;;;;;;4.96;77.48;98955.45;1711049;83;21663;-62
2022/03/28 20:44:44;;;;;;;20.97;11.95;;;;;;;4.93;77.41;98950.39;1711587;83;20939;-62
2022/03/28 20:47:11;;;;;;;18.12;11.43;;;;;;;4.90;77.46;98956.94;1712082;82;21093;-62
2022/03/28 20:49:38;;;;;;;13.43;10.77;;;;;;;4.88;77.50;98954.88;1714030;82;21581;-61
2022/03/28 20:52:06;;;;;;;15.83;11.38;;;;;;;4.84;77.61;98948.11;1692909;83;22211;-61
2022/03/28 20:54:33;;;;;;;19.60;11.95;;;;;;;4.82;77.63;98949.94;1711413;83;21805;-61
2022/03/28 20:57:01;;;;;;;22.48;11.75;;;;;;;4.81;77.80;98959.87;1711828;83;20936;-61
2022/03/28 20:59:29;;;;;;;15.30;10.08;;;;;;;4.80;77.95;98945.27;1710767;83;21073;-61
2022/03/28 21:01:57;;;;;;;22.93;11.55;;;;;;;4.79;77.92;98956.48;1710835;83;21046;-61
2022/03/28 21:04:24;;;;;;;17.98;11.57;;;;;;;4.78;77.93;98958.69;1709920;82;20939;-61
2022/03/28 21:06:52;;;;;;;19.60;12.78;;;;;;;4.78;78.02;98957.39;1711155;83;21452;-61
2022/03/28 21:09:21;;;;;;;15.10;11.03;;;;;;;4.78;78.05;98958.69;1710779;82;20998;-61
2022/03/28 21:11:48;;;;;;;19.05;11.15;;;;;;;4.78;78.21;98963.86;1711659;82;21442;-63
2022/03/28 21:14:15;;;;;;;15.38;11.30;;;;;;;4.79;78.14;98962.95;1716739;82;20959;-62
2022/03/28 21:16:42;;;;;;;21.03;12.67;;;;;;;4.80;78.32;98960.32;1725090;81;20904;-62
2022/03/28 21:19:08;;;;;;;16.45;11.75;;;;;;;4.81;78.27;98965.04;1717138;83;21041;-62
2022/03/28 21:21:35;;;;;;;18.77;11.87;;;;;;;4.82;78.27;98965.45;1712579;83;20927;-62
2022/03/28 21:24:05;;;;;;;19.12;11.73;;;;;;;4.83;78.29;98968.42;1722852;83;22109;-62
2022/03/28 21:26:32;;;;;;;19.92;12.35;;;;;;;4.84;78.36;98967.52;1714616;83;21066;-62
2022/03/28 21:28:59;;;;;;;20.80;12.45;;;;;;;4.84;78.35;98964.92;1717937;83;21011;-63
2022/03/28 21:31:26;;;;;;;19.20;13.25;;;;;;;4.85;78.40;98957.58;1720406;83;21154;-62
2022/03/28 21:33:52;;;;;;;20.48;12.80;;;;;;;4.85;78.37;98953.25;1718121;83;21801;-62
2022/03/28 21:36:20;;;;;;;17.00;12.03;;;;;;;4.85;78.44;98955.00;1717504;83;22225;-62
2022/03/28 21:38:47;;;;;;;15.55;12.58;;;;;;;4.85;78.49;98949.82;1711298;82;21011;-62
2022/03/28 21:41:14;;;;;;;19.10;11.28;;;;;;;4.83;78.58;98947.73;1713292;82;21022;-62
2022/03/28 21:43:41;;;;;;;18.92;12.20;;;;;;;4.83;78.67;98949.02;1718051;81;20940;-62
2022/03/28 21:46:08;;;;;;;21.03;12.53;;;;;;;4.84;78.61;98942.94;1722690;83;20951;-62
2022/03/28 21:48:35;;;;;;;18.12;12.45;;;;;;;4.84;78.58;98937.77;1723445;83;21487;-62
2022/03/28 21:51:02;;;;;;;20.00;11.93;;;;;;;4.83;78.61;98938.68;1716988;83;20923;-62
2022/03/28 21:53:28;;;;;;;15.05;11.55;;;;;;;4.82;78.58;98936.55;1720587;83;20936;-62
2022/03/28 21:56:21;;;;;;;23.22;12.47;;;;;;;4.86;78.73;98931.64;1849337;76;22563;-61
2022/03/28 21:58:50;;;;;;;17.42;13.40;;;;;;;4.83;78.65;98933.51;1819997;78;20936;-61
2022/03/28 22:01:17;;;;;;;18.75;12.58;;;;;;;4.83;78.76;98933.51;1821023;77;21036;-62
2022/03/28 22:03:43;;;;;;;18.35;12.37;;;;;;;4.83;78.78;98929.62;1820418;77;20995;-62
2022/03/28 22:06:10;;;;;;;18.70;13.37;;;;;;;4.82;78.84;98922.78;1819685;77;20975;-62
2022/03/28 22:08:37;;;;;;;19.70;12.23;;;;;;;4.84;78.85;98932.59;1819837;77;21553;-63
2022/03/28 22:11:03;;;;;;;17.33;12.40;;;;;;;4.82;78.89;98918.44;1821145;78;20968;-62
2022/03/28 22:13:30;;;;;;;19.00;12.47;;;;;;;4.82;78.83;98911.14;1817739;77;21503;-62
2022/03/28 22:15:57;;;;;;;18.32;11.50;;;;;;;4.82;78.91;98917.61;1821686;78;20980;-62
2022/03/28 22:18:23;;;;;;;22.25;13.00;;;;;;;4.83;79.01;98917.98;1820880;77;20977;-62
2022/03/28 22:20:50;;;;;;;19.55;12.25;;;;;;;4.80;79.03;98918.10;1816258;78;21082;-63
2022/03/28 22:23:17;;;;;;;18.12;12.90;;;;;;;4.78;79.10;98915.56;1820245;77;21007;-62
2022/03/28 22:25:44;;;;;;;19.20;11.28;;;;;;;4.77;79.20;98902.70;1811775;78;21491;-62
2022/03/28 22:28:11;;;;;;;19.23;13.05;;;;;;;4.77;79.20;98907.88;1813927;77;20865;-62
2022/03/28 22:30:37;;;;;;;19.13;12.63;;;;;;;4.75;79.22;98900.61;1817531;77;20940;-62
2022/03/28 22:33:04;;;;;;;15.83;11.87;;;;;;;4.75;79.23;98895.44;1818832;77;20999;-62
2022/03/28 22:35:31;;;;;;;19.32;12.40;;;;;;;4.70;79.33;98904.22;1820915;78;20874;-62
2022/03/28 22:37:58;;;;;;;22.90;13.58;;;;;;;4.69;79.56;98903.81;1820102;77;21463;-62
2022/03/28 22:40:25;;;;;;;18.05;12.03;;;;;;;4.69;79.33;98893.47;1819218;77;20974;-62
2022/03/28 22:42:52;;;;;;;19.27;12.13;;;;;;;4.70;79.42;98895.17;1819088;77;21513;-62
2022/03/28 22:45:19;;;;;;;25.32;13.58;;;;;;;4.69;79.42;98896.05;1818722;77;21307;-62
2022/03/28 22:47:47;;;;;;;23.12;13.13;;;;;;;4.67;79.48;98892.67;1819574;77;21007;-62
2022/03/28 22:50:14;;;;;;;17.07;11.60;;;;;;;4.66;79.60;98898.75;1817138;78;21758;-62
2022/03/28 22:52:41;;;;;;;24.23;13.38;;;;;;;4.65;79.72;98902.67;1821820;77;20885;-62
2022/03/28 22:55:13;;;;;;;22.40;13.18;;;;;;;4.64;79.65;98897.95;1816312;77;21091;-62
2022/03/28 22:57:41;;;;;;;22.48;13.45;;;;;;;4.62;80.00;98893.31;1818826;77;21494;-62
2022/03/28 23:00:13;;;;;;;16.97;12.47;;;;;;;4.60;79.90;98896.39;1820028;77;21406;-62
2022/03/28 23:02:42;;;;;;;21.48;12.75;;;;;;;4.62;79.88;98896.32;1816408;77;21610;-62
2022/03/28 23:05:10;;;;;;;22.50;12.37;;;;;;;4.62;80.09;98892.02;1817589;78;21008;-62
2022/03/28 23:07:36;;;;;;;;;;;;;;;4.62;79.98;98890.73;1817275;77;21189;-62
2022/03/28 23:10:05;;;;;;;19.60;12.28;;;;;;;4.64;79.97;98887.61;1817080;77;20109;-62
2022/03/28 23:12:32;;;;;;;16.20;12.85;;;;;;;4.64;80.00;98895.37;1818127;76;21081;-62
2022/03/28 23:15:01;;;;;;;19.12;13.30;;;;;;;4.66;80.06;98887.12;1818679;78;22098;-62
2022/03/28 23:17:28;;;;;;;21.17;13.62;;;;;;;4.66;80.07;98883.23;1813807;78;20995;-62
2022/03/28 23:19:55;;;;;;;21.52;13.68;;;;;;;4.66;80.17;98883.23;1819895;77;20987;-62
2022/03/28 23:22:22;;;;;;;18.20;12.58;;;;;;;4.65;80.16;98884.15;1820205;78;20945;-62
2022/03/28 23:24:48;;;;;;;18.50;12.60;;;;;;;4.65;80.28;98871.64;1816990;77;21506;-62
2022/03/28 23:27:15;;;;;;;21.43;14.10;;;;;;;4.65;80.50;98870.34;1815542;77;21477;-62
2022/03/28 23:29:42;;;;;;;22.73;13.33;;;;;;;4.65;80.34;98868.63;1783918;80;20867;-62
2022/03/28 23:32:09;;;;;;;24.57;14.80;;;;;;;4.67;80.37;98862.93;1758602;80;21037;-62
2022/03/28 23:34:36;;;;;;;;;;;;;;;4.69;80.35;98869.35;1738746;80;20999;-62
2022/03/28 23:37:03;;;;;;;24.10;14.35;;;;;;;4.73;80.36;98849.39;1734066;80;20094;-62
2022/03/28 23:39:31;;;;;;;20.12;13.13;;;;;;;4.75;80.35;98839.84;1779834;79;21587;-62
2022/03/28 23:41:58;;;;;;;18.23;13.10;;;;;;;4.76;80.37;98844.97;1784670;78;20964;-61
2022/03/28 23:44:28;;;;;;;21.50;13.08;;;;;;;4.75;80.42;98848.89;1747686;80;20943;-61
2022/03/28 23:46:53;;;;;;;22.10;14.60;;;;;;;4.71;80.73;98845.13;1784472;78;21055;-62
2022/03/28 23:49:20;;;;;;;26.42;15.78;;;;;;;4.71;80.48;98831.36;1780150;80;20938;-61
2022/03/28 23:51:46;;;;;;;27.23;14.73;;;;;;;4.70;80.52;98836.98;1779280;78;21838;-61
2022/03/28 23:54:13;;;;;;;21.20;14.37;;;;;;;4.69;80.70;98840.91;1784088;79;21045;-62
2022/03/28 23:56:40;;;;;;;22.82;15.10;;;;;;;4.68;80.70;98836.65;1789555;78;20957;-62
2022/03/28 23:59:07;;;;;;;17.77;13.05;;;;;;;4.68;80.67;98827.14;1785907;79;21083;-62
